sensor_id;sensor_type;location;lat;lon;timestamp;P1;durP1;ratioP1;P2;durP2;ratioP2
63016;SDS011;50274;45.640;11.756;2023-05-23T00:00:23;20.20;;;11.47;;
63016;SDS011;50274;45.640;11.756;2023-05-23T00:02:49;17.35;;;11.82;;
63016;SDS011;50274;45.640;11.756;2023-05-23T00:05:15;19.53;;;12.20;;
63016;SDS011;50274;45.640;11.756;2023-05-23T00:07:42;23.27;;;14.13;;
63016;SDS011;50274;45.640;11.756;2023-05-23T00:10:09;18.05;;;13.93;;
63016;SDS011;50274;45.640;11.756;2023-05-23T00:12:36;23.77;;;15.60;;
63016;SDS011;50274;45.640;11.756;2023-05-23T00:15:04;20.92;;;13.80;;
63016;SDS011;50274;45.640;11.756;2023-05-23T00:17:34;24.50;;;14.77;;
63016;SDS011;50274;45.640;11.756;2023-05-23T00:20:04;27.00;;;15.45;;
63016;SDS011;50274;45.640;11.756;2023-05-23T00:22:33;37.20;;;20.67;;
63016;SDS011;50274;45.640;11.756;2023-05-23T00:25:00;34.83;;;20.33;;
63016;SDS011;50274;45.640;11.756;2023-05-23T00:27:27;40.25;;;21.17;;
63016;SDS011;50274;45.640;11.756;2023-05-23T00:29:53;35.40;;;20.93;;
63016;SDS011;50274;45.640;11.756;2023-05-23T00:32:18;44.53;;;23.23;;
63016;SDS011;50274;45.640;11.756;2023-05-23T00:34:44;44.47;;;23.50;;
63016;SDS011;50274;45.640;11.756;2023-05-23T00:37:10;40.92;;;23.75;;
63016;SDS011;50274;45.640;11.756;2023-05-23T00:39:36;40.85;;;22.88;;
63016;SDS011;50274;45.640;11.756;2023-05-23T00:42:03;34.30;;;20.20;;
63016;SDS011;50274;45.640;11.756;2023-05-23T00:44:30;31.08;;;17.25;;
63016;SDS011;50274;45.640;11.756;2023-05-23T00:46:56;30.83;;;17.17;;
63016;SDS011;50274;45.640;11.756;2023-05-23T00:49:23;34.47;;;19.48;;
63016;SDS011;50274;45.640;11.756;2023-05-23T00:51:51;31.77;;;18.70;;
63016;SDS011;50274;45.640;11.756;2023-05-23T00:54:17;42.08;;;23.13;;
63016;SDS011;50274;45.640;11.756;2023-05-23T00:56:48;32.03;;;18.73;;
63016;SDS011;50274;45.640;11.756;2023-05-23T00:59:14;34.42;;;17.92;;
63016;SDS011;50274;45.640;11.756;2023-05-23T01:01:40;35.88;;;22.05;;
63016;SDS011;50274;45.640;11.756;2023-05-23T01:04:10;33.57;;;16.13;;
63016;SDS011;50274;45.640;11.756;2023-05-23T01:06:37;28.92;;;15.80;;
63016;SDS011;50274;45.640;11.756;2023-05-23T01:09:04;23.13;;;14.50;;
63016;SDS011;50274;45.640;11.756;2023-05-23T01:11:44;21.50;;;12.73;;
63016;SDS011;50274;45.640;11.756;2023-05-23T01:14:21;19.60;;;11.95;;
63016;SDS011;50274;45.640;11.756;2023-05-23T01:17:33;18.77;;;11.50;;
63016;SDS011;50274;45.640;11.756;2023-05-23T01:20:23;19.38;;;12.25;;
63016;SDS011;50274;45.640;11.756;2023-05-23T01:28:24;15.02;;;10.07;;
63016;SDS011;50274;45.640;11.756;2023-05-23T01:30:56;15.77;;;9.83;;
63016;SDS011;50274;45.640;11.756;2023-05-23T01:33:23;15.80;;;10.38;;
63016;SDS011;50274;45.640;11.756;2023-05-23T01:35:51;14.20;;;9.52;;
63016;SDS011;50274;45.640;11.756;2023-05-23T01:38:17;13.02;;;9.38;;
63016;SDS011;50274;45.640;11.756;2023-05-23T01:40:43;14.50;;;9.53;;
63016;SDS011;50274;45.640;11.756;2023-05-23T01:43:09;17.38;;;9.75;;
63016;SDS011;50274;45.640;11.756;2023-05-23T01:45:35;16.42;;;10.10;;
63016;SDS011;50274;45.640;11.756;2023-05-23T01:48:01;13.90;;;9.65;;
63016;SDS011;50274;45.640;11.756;2023-05-23T01:50:28;15.53;;;9.47;;
63016;SDS011;50274;45.640;11.756;2023-05-23T01:52:54;17.23;;;10.60;;
63016;SDS011;50274;45.640;11.756;2023-05-23T01:55:21;15.82;;;10.23;;
63016;SDS011;50274;45.640;11.756;2023-05-23T01:57:50;14.10;;;9.43;;
63016;SDS011;50274;45.640;11.756;2023-05-23T02:00:19;13.68;;;9.60;;
63016;SDS011;50274;45.640;11.756;2023-05-23T02:02:45;13.37;;;8.73;;
63016;SDS011;50274;45.640;11.756;2023-05-23T02:05:11;15.75;;;8.90;;
63016;SDS011;50274;45.640;11.756;2023-05-23T02:07:37;13.80;;;9.50;;
63016;SDS011;50274;45.640;11.756;2023-05-23T02:10:03;11.77;;;8.37;;
63016;SDS011;50274;45.640;11.756;2023-05-23T02:12:31;14.90;;;8.85;;
63016;SDS011;50274;45.640;11.756;2023-05-23T02:14:57;13.65;;;8.68;;
63016;SDS011;50274;45.640;11.756;2023-05-23T02:17:23;12.43;;;8.80;;
63016;SDS011;50274;45.640;11.756;2023-05-23T02:19:49;12.20;;;8.95;;
63016;SDS011;50274;45.640;11.756;2023-05-23T02:22:15;13.50;;;7.93;;
63016;SDS011;50274;45.640;11.756;2023-05-23T02:24:41;12.20;;;8.63;;
63016;SDS011;50274;45.640;11.756;2023-05-23T02:27:07;12.38;;;8.38;;
63016;SDS011;50274;45.640;11.756;2023-05-23T02:29:32;15.57;;;9.07;;
63016;SDS011;50274;45.640;11.756;2023-05-23T02:31:58;19.75;;;8.55;;
63016;SDS011;50274;45.640;11.756;2023-05-23T02:34:24;12.87;;;8.30;;
63016;SDS011;50274;45.640;11.756;2023-05-23T02:36:50;11.68;;;7.97;;
63016;SDS011;50274;45.640;11.756;2023-05-23T02:39:21;13.18;;;8.63;;
63016;SDS011;50274;45.640;11.756;2023-05-23T02:42:08;13.97;;;8.47;;
63016;SDS011;50274;45.640;11.756;2023-05-23T02:44:43;12.60;;;8.10;;
63016;SDS011;50274;45.640;11.756;2023-05-23T02:47:09;15.35;;;8.77;;
63016;SDS011;50274;45.640;11.756;2023-05-23T02:49:35;14.93;;;9.80;;
63016;SDS011;50274;45.640;11.756;2023-05-23T02:52:01;12.87;;;9.00;;
63016;SDS011;50274;45.640;11.756;2023-05-23T02:54:27;13.10;;;9.95;;
63016;SDS011;50274;45.640;11.756;2023-05-23T02:56:53;13.63;;;8.70;;
63016;SDS011;50274;45.640;11.756;2023-05-23T02:59:20;15.07;;;9.43;;
63016;SDS011;50274;45.640;11.756;2023-05-23T03:01:47;13.48;;;9.52;;
63016;SDS011;50274;45.640;11.756;2023-05-23T03:04:13;15.88;;;9.93;;
63016;SDS011;50274;45.640;11.756;2023-05-23T03:06:39;15.53;;;10.00;;
63016;SDS011;50274;45.640;11.756;2023-05-23T03:09:06;16.40;;;10.00;;
63016;SDS011;50274;45.640;11.756;2023-05-23T03:11:33;15.25;;;9.43;;
63016;SDS011;50274;45.640;11.756;2023-05-23T03:13:58;15.05;;;9.20;;
63016;SDS011;50274;45.640;11.756;2023-05-23T03:16:24;15.67;;;9.93;;
63016;SDS011;50274;45.640;11.756;2023-05-23T03:18:50;16.42;;;9.02;;
63016;SDS011;50274;45.640;11.756;2023-05-23T03:21:16;16.60;;;8.98;;
63016;SDS011;50274;45.640;11.756;2023-05-23T03:23:42;16.90;;;9.63;;
63016;SDS011;50274;45.640;11.756;2023-05-23T03:26:08;14.88;;;9.70;;
63016;SDS011;50274;45.640;11.756;2023-05-23T03:28:34;12.35;;;8.80;;
63016;SDS011;50274;45.640;11.756;2023-05-23T03:30:59;16.30;;;9.90;;
63016;SDS011;50274;45.640;11.756;2023-05-23T03:33:25;14.63;;;10.50;;
63016;SDS011;50274;45.640;11.756;2023-05-23T03:35:51;18.45;;;9.93;;
63016;SDS011;50274;45.640;11.756;2023-05-23T03:38:17;16.67;;;10.37;;
63016;SDS011;50274;45.640;11.756;2023-05-23T03:40:43;16.08;;;10.63;;
63016;SDS011;50274;45.640;11.756;2023-05-23T03:43:09;17.48;;;10.75;;
63016;SDS011;50274;45.640;11.756;2023-05-23T03:45:36;16.90;;;10.52;;
63016;SDS011;50274;45.640;11.756;2023-05-23T03:48:01;14.60;;;9.93;;
63016;SDS011;50274;45.640;11.756;2023-05-23T03:50:27;15.10;;;10.75;;
63016;SDS011;50274;45.640;11.756;2023-05-23T03:52:53;18.67;;;10.73;;
63016;SDS011;50274;45.640;11.756;2023-05-23T03:55:19;14.43;;;9.53;;
63016;SDS011;50274;45.640;11.756;2023-05-23T03:57:49;15.45;;;10.82;;
63016;SDS011;50274;45.640;11.756;2023-05-23T04:00:18;16.58;;;11.38;;
63016;SDS011;50274;45.640;11.756;2023-05-23T04:02:44;15.70;;;10.67;;
63016;SDS011;50274;45.640;11.756;2023-05-23T04:05:11;14.25;;;9.57;;
63016;SDS011;50274;45.640;11.756;2023-05-23T04:07:37;14.93;;;10.60;;
63016;SDS011;50274;45.640;11.756;2023-05-23T04:10:04;16.00;;;10.10;;
63016;SDS011;50274;45.640;11.756;2023-05-23T04:12:30;14.80;;;10.63;;
63016;SDS011;50274;45.640;11.756;2023-05-23T04:14:56;13.27;;;9.57;;
63016;SDS011;50274;45.640;11.756;2023-05-23T04:17:22;20.38;;;10.18;;
63016;SDS011;50274;45.640;11.756;2023-05-23T04:19:49;15.02;;;9.68;;
63016;SDS011;50274;45.640;11.756;2023-05-23T04:22:15;16.25;;;10.38;;
63016;SDS011;50274;45.640;11.756;2023-05-23T04:24:41;13.60;;;10.00;;
63016;SDS011;50274;45.640;11.756;2023-05-23T04:27:08;15.88;;;10.63;;
63016;SDS011;50274;45.640;11.756;2023-05-23T04:29:34;13.88;;;9.65;;
63016;SDS011;50274;45.640;11.756;2023-05-23T04:32:03;15.10;;;9.63;;
63016;SDS011;50274;45.640;11.756;2023-05-23T04:34:30;16.58;;;10.15;;
63016;SDS011;50274;45.640;11.756;2023-05-23T04:37:01;14.03;;;9.67;;
63016;SDS011;50274;45.640;11.756;2023-05-23T04:39:27;14.32;;;9.30;;
63016;SDS011;50274;45.640;11.756;2023-05-23T04:41:56;13.20;;;9.23;;
63016;SDS011;50274;45.640;11.756;2023-05-23T04:44:22;14.55;;;9.57;;
63016;SDS011;50274;45.640;11.756;2023-05-23T04:46:48;16.43;;;9.57;;
63016;SDS011;50274;45.640;11.756;2023-05-23T04:49:14;12.95;;;8.98;;
63016;SDS011;50274;45.640;11.756;2023-05-23T04:51:41;15.05;;;9.60;;
63016;SDS011;50274;45.640;11.756;2023-05-23T04:54:07;12.23;;;9.10;;
63016;SDS011;50274;45.640;11.756;2023-05-23T04:56:33;13.68;;;9.00;;
63016;SDS011;50274;45.640;11.756;2023-05-23T04:58:59;11.07;;;9.10;;
63016;SDS011;50274;45.640;11.756;2023-05-23T05:01:25;14.15;;;10.73;;
63016;SDS011;50274;45.640;11.756;2023-05-23T05:03:52;12.40;;;9.40;;
63016;SDS011;50274;45.640;11.756;2023-05-23T05:06:17;12.15;;;8.60;;
63016;SDS011;50274;45.640;11.756;2023-05-23T05:08:45;16.13;;;11.13;;
63016;SDS011;50274;45.640;11.756;2023-05-23T05:11:11;14.15;;;8.75;;
63016;SDS011;50274;45.640;11.756;2023-05-23T05:13:36;14.53;;;9.00;;
63016;SDS011;50274;45.640;11.756;2023-05-23T05:16:02;11.15;;;8.38;;
63016;SDS011;50274;45.640;11.756;2023-05-23T05:18:28;14.20;;;9.10;;
63016;SDS011;50274;45.640;11.756;2023-05-23T05:20:54;11.83;;;8.43;;
63016;SDS011;50274;45.640;11.756;2023-05-23T05:23:23;11.95;;;8.10;;
63016;SDS011;50274;45.640;11.756;2023-05-23T05:25:50;12.25;;;8.25;;
63016;SDS011;50274;45.640;11.756;2023-05-23T05:28:19;10.93;;;7.68;;
63016;SDS011;50274;45.640;11.756;2023-05-23T05:30:55;13.35;;;8.10;;
63016;SDS011;50274;45.640;11.756;2023-05-23T05:33:21;13.70;;;7.97;;
63016;SDS011;50274;45.640;11.756;2023-05-23T05:35:48;10.40;;;8.15;;
63016;SDS011;50274;45.640;11.756;2023-05-23T05:38:15;11.65;;;7.93;;
63016;SDS011;50274;45.640;11.756;2023-05-23T05:40:41;11.43;;;7.60;;
63016;SDS011;50274;45.640;11.756;2023-05-23T05:43:07;13.87;;;8.27;;
63016;SDS011;50274;45.640;11.756;2023-05-23T05:45:34;11.57;;;7.82;;
63016;SDS011;50274;45.640;11.756;2023-05-23T05:48:00;12.15;;;8.43;;
63016;SDS011;50274;45.640;11.756;2023-05-23T05:50:26;12.75;;;8.10;;
63016;SDS011;50274;45.640;11.756;2023-05-23T05:52:51;10.70;;;7.40;;
63016;SDS011;50274;45.640;11.756;2023-05-23T05:55:17;13.63;;;8.85;;
63016;SDS011;50274;45.640;11.756;2023-05-23T05:57:43;13.47;;;8.03;;
63016;SDS011;50274;45.640;11.756;2023-05-23T06:00:10;17.48;;;10.77;;
63016;SDS011;50274;45.640;11.756;2023-05-23T06:02:39;16.88;;;9.82;;
63016;SDS011;50274;45.640;11.756;2023-05-23T06:05:11;15.20;;;10.05;;
63016;SDS011;50274;45.640;11.756;2023-05-23T06:07:40;16.40;;;9.15;;
63016;SDS011;50274;45.640;11.756;2023-05-23T06:10:09;13.63;;;9.23;;
63016;SDS011;50274;45.640;11.756;2023-05-23T06:12:37;13.65;;;8.68;;
63016;SDS011;50274;45.640;11.756;2023-05-23T06:15:06;13.88;;;9.02;;
63016;SDS011;50274;45.640;11.756;2023-05-23T06:17:33;11.73;;;7.78;;
63016;SDS011;50274;45.640;11.756;2023-05-23T06:19:59;10.85;;;6.75;;
63016;SDS011;50274;45.640;11.756;2023-05-23T06:22:25;10.53;;;7.27;;
63016;SDS011;50274;45.640;11.756;2023-05-23T06:24:51;12.50;;;7.75;;
63016;SDS011;50274;45.640;11.756;2023-05-23T06:27:17;11.60;;;8.30;;
63016;SDS011;50274;45.640;11.756;2023-05-23T06:29:43;13.93;;;9.40;;
63016;SDS011;50274;45.640;11.756;2023-05-23T06:32:09;13.25;;;8.90;;
63016;SDS011;50274;45.640;11.756;2023-05-23T06:34:34;10.98;;;7.65;;
63016;SDS011;50274;45.640;11.756;2023-05-23T06:37:00;12.03;;;7.50;;
63016;SDS011;50274;45.640;11.756;2023-05-23T06:39:26;12.50;;;7.97;;
63016;SDS011;50274;45.640;11.756;2023-05-23T06:41:52;15.30;;;8.45;;
63016;SDS011;50274;45.640;11.756;2023-05-23T06:44:18;12.23;;;7.50;;
63016;SDS011;50274;45.640;11.756;2023-05-23T06:46:45;11.25;;;7.47;;
63016;SDS011;50274;45.640;11.756;2023-05-23T06:49:11;12.30;;;6.68;;
63016;SDS011;50274;45.640;11.756;2023-05-23T06:51:37;10.48;;;6.90;;
63016;SDS011;50274;45.640;11.756;2023-05-23T06:54:03;12.40;;;7.40;;
63016;SDS011;50274;45.640;11.756;2023-05-23T06:56:29;10.70;;;7.25;;
63016;SDS011;50274;45.640;11.756;2023-05-23T06:58:55;10.77;;;7.47;;
63016;SDS011;50274;45.640;11.756;2023-05-23T07:01:21;12.60;;;7.50;;
63016;SDS011;50274;45.640;11.756;2023-05-23T07:03:47;11.25;;;7.30;;
63016;SDS011;50274;45.640;11.756;2023-05-23T07:06:13;10.68;;;6.45;;
63016;SDS011;50274;45.640;11.756;2023-05-23T07:08:39;9.90;;;6.47;;
63016;SDS011;50274;45.640;11.756;2023-05-23T07:11:04;11.57;;;6.65;;
63016;SDS011;50274;45.640;11.756;2023-05-23T07:13:30;11.25;;;6.00;;
63016;SDS011;50274;45.640;11.756;2023-05-23T07:15:56;7.95;;;5.22;;
63016;SDS011;50274;45.640;11.756;2023-05-23T07:18:22;8.37;;;4.80;;
63016;SDS011;50274;45.640;11.756;2023-05-23T07:20:48;7.80;;;4.50;;
63016;SDS011;50274;45.640;11.756;2023-05-23T07:23:15;9.88;;;4.70;;
63016;SDS011;50274;45.640;11.756;2023-05-23T07:25:41;11.73;;;5.60;;
63016;SDS011;50274;45.640;11.756;2023-05-23T07:28:08;10.18;;;5.20;;
63016;SDS011;50274;45.640;11.756;2023-05-23T07:30:34;9.70;;;5.33;;
63016;SDS011;50274;45.640;11.756;2023-05-23T07:33:00;7.70;;;4.70;;
63016;SDS011;50274;45.640;11.756;2023-05-23T07:35:25;10.30;;;5.07;;
63016;SDS011;50274;45.640;11.756;2023-05-23T07:37:52;12.37;;;5.70;;
63016;SDS011;50274;45.640;11.756;2023-05-23T07:40:18;11.57;;;5.43;;
63016;SDS011;50274;45.640;11.756;2023-05-23T07:42:45;9.73;;;5.32;;
63016;SDS011;50274;45.640;11.756;2023-05-23T07:45:11;8.93;;;5.35;;
63016;SDS011;50274;45.640;11.756;2023-05-23T07:47:36;11.63;;;6.33;;
63016;SDS011;50274;45.640;11.756;2023-05-23T07:50:03;7.80;;;4.78;;
63016;SDS011;50274;45.640;11.756;2023-05-23T07:52:29;11.73;;;5.80;;
63016;SDS011;50274;45.640;11.756;2023-05-23T07:54:56;9.10;;;5.53;;
63016;SDS011;50274;45.640;11.756;2023-05-23T07:57:22;11.80;;;6.37;;
63016;SDS011;50274;45.640;11.756;2023-05-23T07:59:51;10.32;;;6.00;;
63016;SDS011;50274;45.640;11.756;2023-05-23T08:02:17;9.10;;;5.28;;
63016;SDS011;50274;45.640;11.756;2023-05-23T08:04:44;8.65;;;5.53;;
63016;SDS011;50274;45.640;11.756;2023-05-23T08:07:10;11.10;;;5.00;;
63016;SDS011;50274;45.640;11.756;2023-05-23T08:09:39;10.83;;;6.10;;
63016;SDS011;50274;45.640;11.756;2023-05-23T08:12:06;9.25;;;5.00;;
63016;SDS011;50274;45.640;11.756;2023-05-23T08:14:33;8.98;;;5.50;;
63016;SDS011;50274;45.640;11.756;2023-05-23T08:16:59;10.75;;;5.50;;
63016;SDS011;50274;45.640;11.756;2023-05-23T08:19:26;9.43;;;5.47;;
63016;SDS011;50274;45.640;11.756;2023-05-23T08:21:52;8.63;;;5.20;;
63016;SDS011;50274;45.640;11.756;2023-05-23T08:24:18;8.88;;;5.15;;
63016;SDS011;50274;45.640;11.756;2023-05-23T08:26:45;12.88;;;5.47;;
63016;SDS011;50274;45.640;11.756;2023-05-23T08:29:11;9.88;;;5.40;;
63016;SDS011;50274;45.640;11.756;2023-05-23T08:31:37;10.80;;;5.13;;
63016;SDS011;50274;45.640;11.756;2023-05-23T08:34:03;9.55;;;5.28;;
63016;SDS011;50274;45.640;11.756;2023-05-23T08:36:29;9.90;;;4.70;;
63016;SDS011;50274;45.640;11.756;2023-05-23T08:38:58;11.90;;;5.40;;
63016;SDS011;50274;45.640;11.756;2023-05-23T08:41:24;10.23;;;5.18;;
63016;SDS011;50274;45.640;11.756;2023-05-23T08:43:51;11.90;;;5.68;;
63016;SDS011;50274;45.640;11.756;2023-05-23T08:46:17;11.95;;;5.63;;
63016;SDS011;50274;45.640;11.756;2023-05-23T08:48:45;8.73;;;5.50;;
63016;SDS011;50274;45.640;11.756;2023-05-23T08:51:24;12.45;;;6.28;;
63016;SDS011;50274;45.640;11.756;2023-05-23T08:53:51;10.48;;;6.43;;
63016;SDS011;50274;45.640;11.756;2023-05-23T08:56:20;11.20;;;6.45;;
63016;SDS011;50274;45.640;11.756;2023-05-23T08:58:48;12.98;;;6.80;;
63016;SDS011;50274;45.640;11.756;2023-05-23T09:01:17;10.40;;;6.37;;
63016;SDS011;50274;45.640;11.756;2023-05-23T09:03:44;13.50;;;6.78;;
63016;SDS011;50274;45.640;11.756;2023-05-23T09:06:10;12.35;;;5.85;;
63016;SDS011;50274;45.640;11.756;2023-05-23T09:08:36;10.48;;;5.70;;
63016;SDS011;50274;45.640;11.756;2023-05-23T09:11:03;11.73;;;6.03;;
63016;SDS011;50274;45.640;11.756;2023-05-23T09:13:30;9.05;;;5.30;;
63016;SDS011;50274;45.640;11.756;2023-05-23T09:16:04;9.73;;;5.45;;
63016;SDS011;50274;45.640;11.756;2023-05-23T09:18:38;8.40;;;5.10;;
63016;SDS011;50274;45.640;11.756;2023-05-23T09:21:07;9.43;;;5.20;;
63016;SDS011;50274;45.640;11.756;2023-05-23T09:23:36;9.67;;;5.47;;
63016;SDS011;50274;45.640;11.756;2023-05-23T09:26:05;9.45;;;5.25;;
63016;SDS011;50274;45.640;11.756;2023-05-23T09:28:32;12.30;;;4.97;;
63016;SDS011;50274;45.640;11.756;2023-05-23T09:31:02;8.73;;;5.10;;
63016;SDS011;50274;45.640;11.756;2023-05-23T09:33:34;9.60;;;5.53;;
63016;SDS011;50274;45.640;11.756;2023-05-23T09:36:03;9.50;;;5.00;;
63016;SDS011;50274;45.640;11.756;2023-05-23T09:38:30;10.60;;;5.90;;
63016;SDS011;50274;45.640;11.756;2023-05-23T09:40:57;11.57;;;5.72;;
63016;SDS011;50274;45.640;11.756;2023-05-23T09:43:23;14.10;;;5.72;;
63016;SDS011;50274;45.640;11.756;2023-05-23T09:45:49;8.87;;;5.70;;
63016;SDS011;50274;45.640;11.756;2023-05-23T09:48:17;10.77;;;5.50;;
63016;SDS011;50274;45.640;11.756;2023-05-23T09:50:44;9.50;;;5.85;;
63016;SDS011;50274;45.640;11.756;2023-05-23T09:53:11;11.43;;;6.13;;
63016;SDS011;50274;45.640;11.756;2023-05-23T09:55:36;10.90;;;5.40;;
63016;SDS011;50274;45.640;11.756;2023-05-23T09:58:04;11.32;;;5.78;;
63016;SDS011;50274;45.640;11.756;2023-05-23T10:00:31;7.35;;;5.20;;
63016;SDS011;50274;45.640;11.756;2023-05-23T10:13:21;9.15;;;5.82;;
63016;SDS011;50274;45.640;11.756;2023-05-23T10:16:05;11.60;;;6.13;;
63016;SDS011;50274;45.640;11.756;2023-05-23T10:18:33;11.18;;;5.60;;
63016;SDS011;50274;45.640;11.756;2023-05-23T10:21:08;11.23;;;6.13;;
63016;SDS011;50274;45.640;11.756;2023-05-23T10:23:42;10.85;;;6.28;;
63016;SDS011;50274;45.640;11.756;2023-05-23T10:26:08;9.60;;;5.88;;
63016;SDS011;50274;45.640;11.756;2023-05-23T10:28:35;10.60;;;5.23;;
63016;SDS011;50274;45.640;11.756;2023-05-23T10:31:01;10.13;;;6.00;;
63016;SDS011;50274;45.640;11.756;2023-05-23T10:33:32;10.50;;;6.50;;
63016;SDS011;50274;45.640;11.756;2023-05-23T10:36:05;9.15;;;5.82;;
63016;SDS011;50274;45.640;11.756;2023-05-23T10:38:41;8.48;;;5.40;;
63016;SDS011;50274;45.640;11.756;2023-05-23T10:43:56;8.88;;;5.88;;
63016;SDS011;50274;45.640;11.756;2023-05-23T10:49:23;11.23;;;6.10;;
63016;SDS011;50274;45.640;11.756;2023-05-23T10:52:04;9.57;;;5.65;;
63016;SDS011;50274;45.640;11.756;2023-05-23T10:54:44;11.77;;;5.83;;
63016;SDS011;50274;45.640;11.756;2023-05-23T10:57:14;11.48;;;5.82;;
63016;SDS011;50274;45.640;11.756;2023-05-23T10:59:43;12.00;;;5.93;;
63016;SDS011;50274;45.640;11.756;2023-05-23T11:02:14;11.93;;;6.32;;
63016;SDS011;50274;45.640;11.756;2023-05-23T11:05:12;9.30;;;6.20;;
63016;SDS011;50274;45.640;11.756;2023-05-23T11:07:46;10.07;;;6.57;;
63016;SDS011;50274;45.640;11.756;2023-05-23T11:10:54;12.65;;;5.97;;
63016;SDS011;50274;45.640;11.756;2023-05-23T11:13:21;11.90;;;6.45;;
63016;SDS011;50274;45.640;11.756;2023-05-23T11:15:47;12.13;;;6.93;;
63016;SDS011;50274;45.640;11.756;2023-05-23T11:18:25;9.63;;;6.13;;
63016;SDS011;50274;45.640;11.756;2023-05-23T11:20:52;11.03;;;6.80;;
63016;SDS011;50274;45.640;11.756;2023-05-23T11:23:19;11.85;;;6.32;;
63016;SDS011;50274;45.640;11.756;2023-05-23T11:25:51;10.82;;;6.38;;
63016;SDS011;50274;45.640;11.756;2023-05-23T11:28:19;10.00;;;6.18;;
63016;SDS011;50274;45.640;11.756;2023-05-23T11:30:48;13.35;;;6.65;;
63016;SDS011;50274;45.640;11.756;2023-05-23T11:33:14;10.83;;;5.90;;
63016;SDS011;50274;45.640;11.756;2023-05-23T11:35:47;9.90;;;6.25;;
63016;SDS011;50274;45.640;11.756;2023-05-23T11:38:15;9.73;;;5.70;;
63016;SDS011;50274;45.640;11.756;2023-05-23T11:40:42;10.55;;;6.07;;
63016;SDS011;50274;45.640;11.756;2023-05-23T11:43:11;9.32;;;6.10;;
63016;SDS011;50274;45.640;11.756;2023-05-23T11:45:43;8.50;;;6.10;;
63016;SDS011;50274;45.640;11.756;2023-05-23T11:48:13;9.88;;;5.43;;
63016;SDS011;50274;45.640;11.756;2023-05-23T11:50:52;9.27;;;5.03;;
63016;SDS011;50274;45.640;11.756;2023-05-23T11:53:19;9.63;;;5.95;;
63016;SDS011;50274;45.640;11.756;2023-05-23T11:55:53;11.23;;;5.50;;
63016;SDS011;50274;45.640;11.756;2023-05-23T11:58:21;12.80;;;5.83;;
63016;SDS011;50274;45.640;11.756;2023-05-23T12:00:51;11.48;;;5.32;;
63016;SDS011;50274;45.640;11.756;2023-05-23T12:03:26;9.93;;;5.45;;
63016;SDS011;50274;45.640;11.756;2023-05-23T12:05:53;8.23;;;4.80;;
63016;SDS011;50274;45.640;11.756;2023-05-23T12:08:20;9.50;;;4.97;;
63016;SDS011;50274;45.640;11.756;2023-05-23T12:10:52;8.60;;;5.25;;
63016;SDS011;50274;45.640;11.756;2023-05-23T12:13:27;10.00;;;5.20;;
63016;SDS011;50274;45.640;11.756;2023-05-23T12:15:57;8.65;;;5.22;;
63016;SDS011;50274;45.640;11.756;2023-05-23T12:18:28;8.10;;;5.35;;
63016;SDS011;50274;45.640;11.756;2023-05-23T12:20:58;8.40;;;5.40;;
63016;SDS011;50274;45.640;11.756;2023-05-23T12:23:27;10.15;;;5.35;;
63016;SDS011;50274;45.640;11.756;2023-05-23T12:25:54;9.43;;;4.90;;
63016;SDS011;50274;45.640;11.756;2023-05-23T12:28:33;9.90;;;5.97;;
63016;SDS011;50274;45.640;11.756;2023-05-23T12:31:09;9.73;;;5.45;;
63016;SDS011;50274;45.640;11.756;2023-05-23T12:33:46;9.27;;;6.07;;
63016;SDS011;50274;45.640;11.756;2023-05-23T12:36:13;11.45;;;5.85;;
63016;SDS011;50274;45.640;11.756;2023-05-23T12:38:41;7.80;;;5.38;;
63016;SDS011;50274;45.640;11.756;2023-05-23T12:41:10;9.63;;;5.43;;
63016;SDS011;50274;45.640;11.756;2023-05-23T12:43:52;10.20;;;5.47;;
63016;SDS011;50274;45.640;11.756;2023-05-23T12:46:20;10.63;;;5.20;;
63016;SDS011;50274;45.640;11.756;2023-05-23T12:48:50;10.52;;;5.20;;
63016;SDS011;50274;45.640;11.756;2023-05-23T12:51:16;10.93;;;5.63;;
63016;SDS011;50274;45.640;11.756;2023-05-23T12:53:43;7.78;;;4.95;;
63016;SDS011;50274;45.640;11.756;2023-05-23T12:56:09;9.38;;;4.95;;
63016;SDS011;50274;45.640;11.756;2023-05-23T12:58:35;8.63;;;5.47;;
63016;SDS011;50274;45.640;11.756;2023-05-23T13:01:01;9.23;;;5.05;;
63016;SDS011;50274;45.640;11.756;2023-05-23T13:03:27;10.70;;;5.03;;
63016;SDS011;50274;45.640;11.756;2023-05-23T13:05:56;8.57;;;4.63;;
63016;SDS011;50274;45.640;11.756;2023-05-23T13:08:22;9.30;;;4.90;;
63016;SDS011;50274;45.640;11.756;2023-05-23T13:10:48;7.45;;;4.80;;
63016;SDS011;50274;45.640;11.756;2023-05-23T13:13:14;10.98;;;5.45;;
63016;SDS011;50274;45.640;11.756;2023-05-23T13:15:40;7.93;;;5.00;;
63016;SDS011;50274;45.640;11.756;2023-05-23T13:18:06;8.45;;;4.85;;
63016;SDS011;50274;45.640;11.756;2023-05-23T13:20:32;12.38;;;5.00;;
63016;SDS011;50274;45.640;11.756;2023-05-23T13:22:58;11.17;;;5.67;;
63016;SDS011;50274;45.640;11.756;2023-05-23T13:25:25;8.45;;;4.80;;
63016;SDS011;50274;45.640;11.756;2023-05-23T13:27:51;7.22;;;5.00;;
63016;SDS011;50274;45.640;11.756;2023-05-23T13:30:18;8.05;;;5.10;;
63016;SDS011;50274;45.640;11.756;2023-05-23T13:32:45;9.20;;;5.38;;
63016;SDS011;50274;45.640;11.756;2023-05-23T13:35:11;9.30;;;5.20;;
63016;SDS011;50274;45.640;11.756;2023-05-23T13:37:37;10.63;;;5.25;;
63016;SDS011;50274;45.640;11.756;2023-05-23T13:40:06;8.32;;;5.13;;
63016;SDS011;50274;45.640;11.756;2023-05-23T13:42:33;7.80;;;5.22;;
63016;SDS011;50274;45.640;11.756;2023-05-23T13:44:59;10.10;;;5.10;;
63016;SDS011;50274;45.640;11.756;2023-05-23T13:47:25;8.63;;;4.90;;
63016;SDS011;50274;45.640;11.756;2023-05-23T13:49:51;8.20;;;5.32;;
63016;SDS011;50274;45.640;11.756;2023-05-23T13:52:17;9.67;;;5.00;;
63016;SDS011;50274;45.640;11.756;2023-05-23T13:54:44;9.80;;;4.40;;
63016;SDS011;50274;45.640;11.756;2023-05-23T13:57:11;8.90;;;4.85;;
63016;SDS011;50274;45.640;11.756;2023-05-23T13:59:36;7.90;;;4.38;;
63016;SDS011;50274;45.640;11.756;2023-05-23T14:02:02;8.50;;;4.83;;
63016;SDS011;50274;45.640;11.756;2023-05-23T14:04:28;9.13;;;4.93;;
63016;SDS011;50274;45.640;11.756;2023-05-23T14:06:54;10.63;;;4.20;;
63016;SDS011;50274;45.640;11.756;2023-05-23T14:09:20;9.00;;;4.63;;
63016;SDS011;50274;45.640;11.756;2023-05-23T14:11:46;10.43;;;4.80;;
63016;SDS011;50274;45.640;11.756;2023-05-23T14:14:12;7.30;;;4.55;;
63016;SDS011;50274;45.640;11.756;2023-05-23T14:16:38;12.67;;;4.87;;
63016;SDS011;50274;45.640;11.756;2023-05-23T14:19:04;6.97;;;4.70;;
63016;SDS011;50274;45.640;11.756;2023-05-23T14:21:29;9.88;;;5.55;;
63016;SDS011;50274;45.640;11.756;2023-05-23T14:23:55;10.00;;;4.60;;
63016;SDS011;50274;45.640;11.756;2023-05-23T14:26:21;9.23;;;4.10;;
63016;SDS011;50274;45.640;11.756;2023-05-23T14:28:47;9.13;;;4.63;;
63016;SDS011;50274;45.640;11.756;2023-05-23T14:31:13;7.50;;;4.23;;
63016;SDS011;50274;45.640;11.756;2023-05-23T14:33:39;6.90;;;3.83;;
63016;SDS011;50274;45.640;11.756;2023-05-23T14:36:05;6.77;;;4.23;;
63016;SDS011;50274;45.640;11.756;2023-05-23T14:38:30;7.70;;;4.23;;
63016;SDS011;50274;45.640;11.756;2023-05-23T14:40:56;8.05;;;4.22;;
63016;SDS011;50274;45.640;11.756;2023-05-23T14:43:23;6.65;;;4.30;;
63016;SDS011;50274;45.640;11.756;2023-05-23T14:45:49;8.27;;;4.60;;
63016;SDS011;50274;45.640;11.756;2023-05-23T14:48:15;9.95;;;4.50;;